Windhoek — 3FWJ3 — position and weather

sailwx.info

Track history (hours):
 
Tides and Currents Weather Stations Pressure Air Temp Water Temp Dewpoint Dewpoint Depression Visibility Wind Speed Wind Dir Waves Ship Positions

Windhoek

Last reported at 2016-Apr-30 00:33 UTC. Time now 2016-Apr-30 01:25 UTC.
Position N 51°03' E 001°39'.

Length 172 m; draft 6.4 m.

Type: Ship (hazmat cat C). MMSI: 370431000.

Date/timePositionNaut miles runAvg speedWind from/ knotsBaromVisibWave heightAir tempDewpointWater temp
2016-Apr-30 00:33N 51°03' E 001°39'8 8.4
2016-Apr-29 23:33N 50°57' E 001°29'9 8.5
2016-Apr-29 22:33N 50°49' E 001°25'45 8.9
2016-Apr-29 17:33N 50°24' E 000°27'1515.5
2016-Apr-29 16:33N 50°20' E 000°04'1616.1
2016-Apr-29 15:33N 50°15' W 000°20'1616.0
2016-Apr-29 14:31N 50°09' W 000°45'1515.3
2016-Apr-29 13:33N 49°54' W 000°44'1413.6
2016-Apr-29 12:33N 49°45' W 000°29'1514.6
2016-Apr-29 11:33N 49°35' W 000°12'1313.4
2016-Apr-29 10:33N 49°28' E 000°06'3 3.2
2016-Apr-29 09:32N 49°27' E 000°10'0 0.0
2016-Apr-29 08:32N 49°27' E 000°10'0 0.0
2016-Apr-29 07:32N 49°27' E 000°10'0 0.0
2016-Apr-29 06:32N 49°27' E 000°10'0 0.0
2016-Apr-29 05:32N 49°27' E 000°10'0 0.0
2016-Apr-29 04:32N 49°27' E 000°10'0 0.0
2016-Apr-29 03:32N 49°27' E 000°10'0 0.0
2016-Apr-29 02:32N 49°27' E 000°10'0 0.0
2016-Apr-29 01:32N 49°27' E 000°10'0 0.0
2016-Apr-29 00:32N 49°27' E 000°10'0 0.0
2016-Apr-28 23:32N 49°27' E 000°10'0 0.0
2016-Apr-28 22:32N 49°27' E 000°10'0 0.0
2016-Apr-28 21:32N 49°27' E 000°10'0 0.0
2016-Apr-28 20:32N 49°27' E 000°10'0 0.0
2016-Apr-28 19:32N 49°27' E 000°10'0 0.0
2016-Apr-28 18:32N 49°27' E 000°10'0 0.0
2016-Apr-28 17:32N 49°27' E 000°10'0 0.0
2016-Apr-28 16:32N 49°27' E 000°10'0 0.0
2016-Apr-28 15:32N 49°27' E 000°10'0 0.0
2016-Apr-28 14:32N 49°27' E 000°10'0 0.0
2016-Apr-28 13:32N 49°27' E 000°10'0 0.0
2016-Apr-28 12:32N 49°27' E 000°10'0 0.0
2016-Apr-28 11:32N 49°27' E 000°10'0 0.0
2016-Apr-28 10:32N 49°27' E 000°10'0 0.0
2016-Apr-28 09:32N 49°27' E 000°10'0 0.0
2016-Apr-28 08:32N 49°27' E 000°10'0 0.0
2016-Apr-28 07:32N 49°27' E 000°10'0 0.0
2016-Apr-28 06:32N 49°27' E 000°10'0 0.0
2016-Apr-28 05:32N 49°27' E 000°10'2 2.2
2016-Apr-28 04:33N 49°28' E 000°07'2 2.1
2016-Apr-28 03:33N 49°29' E 000°10'0 0.0
2016-Apr-28 02:33N 49°29' E 000°10'0 0.0
2016-Apr-28 01:33N 49°29' E 000°10'0 0.0
2016-Apr-28 00:33N 49°29' E 000°10'0 0.0
2016-Apr-27 23:33N 49°29' E 000°10'0 0.0
2016-Apr-27 22:33N 49°29' E 000°10'0 0.0
2016-Apr-27 21:33N 49°29' E 000°10'0 0.0
2016-Apr-27 20:33N 49°29' E 000°10'0 0.0
2016-Apr-27 19:33N 49°29' E 000°10'0 0.0
2016-Apr-27 18:33N 49°29' E 000°10'0 0.0
2016-Apr-27 17:33N 49°29' E 000°10'0 0.1
2016-Apr-27 16:34N 49°29' E 000°10'8 8.1
2016-Apr-27 15:34N 49°31' W 000°02'1413.9
2016-Apr-27 14:34N 49°35' W 000°23'1413.9
2016-Apr-27 13:33N 49°40' W 000°42'1413.9
2016-Apr-27 12:33N 49°45' W 001°03'6917.3
2016-Apr-27 08:34N 49°48' W 002°49'1615.7
2016-Apr-27 07:33N 49°46' W 003°13'2016.7
2016-Apr-27 06:23N 49°46' W 003°44'1617.4
2016-Apr-27 05:27N 49°47' W 004°09'1917.1
2016-Apr-27 04:22N 49°47' W 004°37'5713.7
2016-Apr-27 00:12N 50°07' W 005°60'1218.2
2016-Apr-26 23:34N 50°19' W 006°01'2017.9
2016-Apr-26 22:27N 50°39' W 006°02'8216.6
2016-Apr-26 17:32N 52°00' W 005°55'1818.2
2016-Apr-26 16:34N 52°17' W 005°44'1918.7
2016-Apr-26 15:33N 52°35' W 005°37'8617.1
2016-Apr-26 10:31N 53°60' W 005°07'1516.2
2016-Apr-26 09:34N 54°15' W 005°02'1615.9
2016-Apr-26 08:34N 54°30' W 005°07'1616.4
2016-Apr-26 07:34N 54°45' W 005°18'1514.8
2016-Apr-26 06:34N 55°00' W 005°22'3516.1
2016-Apr-26 04:24N 55°32' W 004°58'2010.9
2016-Apr-26 02:33N 55°52' W 004°56'8 7.6
2016-Apr-26 01:31N 55°57' W 004°46'0 0.0
2016-Apr-26 00:31N 55°57' W 004°46'0 0.0
2016-Apr-25 23:31N 55°57' W 004°46'0 0.0
2016-Apr-25 22:31N 55°57' W 004°46'0 0.0
2016-Apr-25 21:31N 55°57' W 004°46'1 0.7
2016-Apr-25 20:33N 55°58' W 004°47'1110.3
2016-Apr-25 19:32N 55°49' W 004°57'1111.7
2016-Apr-25 18:34N 55°38' W 004°58'3014.9
2016-Apr-25 16:33N 55°10' W 005°16'1515.3
2016-Apr-25 15:33N 54°55' W 005°26'1515.2
2016-Apr-25 14:33N 54°43' W 005°41'9 8.8
2016-Apr-25 13:32N 54°38' W 005°53'0 0.5
2016-Apr-25 12:33N 54°38' W 005°53'0 0.0
2016-Apr-25 11:28N 54°38' W 005°53'0 0.0
2016-Apr-25 10:34N 54°38' W 005°53'0 0.0
2016-Apr-25 09:33N 54°38' W 005°53'0 0.0
2016-Apr-25 08:33N 54°38' W 005°53'0 0.0
2016-Apr-25 07:34N 54°38' W 005°53'0 0.0
2016-Apr-25 06:33N 54°38' W 005°53'0 0.0
2016-Apr-25 05:33N 54°38' W 005°53'0 0.0
2016-Apr-25 04:34N 54°38' W 005°53'0 0.0
2016-Apr-25 03:34N 54°38' W 005°53'0 0.0
2016-Apr-25 02:34N 54°38' W 005°53'0 0.0
2016-Apr-25 01:33N 54°38' W 005°53'0 0.0
2016-Apr-25 00:33N 54°38' W 005°53'0 0.0
2016-Apr-24 23:33N 54°38' W 005°53'0 0.0
2016-Apr-24 22:27N 54°38' W 005°53'0 0.0
2016-Apr-24 21:34N 54°38' W 005°53'2 1.7
2016-Apr-24 20:33N 54°39' W 005°51'1010.0
2016-Apr-24 19:33N 54°44' W 005°36'1616.3
2016-Apr-24 18:33N 54°33' W 005°14'1818.4
2016-Apr-24 17:34N 54°17' W 005°00'5317.7
2016-Apr-24 14:33N 53°39' W 003°57'1918.6
2016-Apr-24 13:33N 53°33' W 003°27'1110.8
2016-Apr-24 12:33N 53°32' W 003°09'7 6.7
2016-Apr-24 11:33N 53°27' W 003°01'1 0.5
2016-Apr-24 10:33N 53°28' W 003°01'0 0.1
2016-Apr-24 09:32N 53°28' W 003°01'0 0.0
2016-Apr-24 08:32N 53°28' W 003°01'0 0.0
2016-Apr-24 07:31N 53°28' W 003°01'0 0.0
2016-Apr-24 06:31N 53°28' W 003°01'0 0.0
2016-Apr-24 05:31N 53°28' W 003°01'0 0.0
2016-Apr-24 04:31N 53°28' W 003°01'0 0.0
2016-Apr-24 03:31N 53°28' W 003°01'0 0.0
2016-Apr-24 02:31N 53°28' W 003°01'0 0.0
2016-Apr-24 01:31N 53°28' W 003°01'0 0.0
2016-Apr-24 00:31N 53°28' W 003°01'0 0.0
2016-Apr-23 23:31N 53°28' W 003°01'0 0.0
2016-Apr-23 22:31N 53°28' W 003°01'0 0.0
2016-Apr-23 21:29N 53°28' W 003°01'0 0.0
2016-Apr-23 20:19N 53°28' W 003°01'0 0.0
2016-Apr-23 19:31N 53°28' W 003°01'0 0.0
2016-Apr-23 18:32N 53°28' W 003°01'0 0.0
2016-Apr-23 17:29N 53°28' W 003°01'0 0.0
2016-Apr-23 16:31N 53°28' W 003°01'0 0.0
2016-Apr-23 15:29N 53°28' W 003°01'0 0.0
2016-Apr-23 14:31N 53°28' W 003°01'0 0.0
2016-Apr-23 13:28N 53°28' W 003°01'0 0.0
2016-Apr-23 12:31N 53°28' W 003°01'0 0.0
2016-Apr-23 11:31N 53°28' W 003°01'0 0.0
2016-Apr-23 10:31N 53°28' W 003°01'0 0.3
2016-Apr-23 09:28N 53°27' W 003°01'0 0.3
2016-Apr-23 08:28N 53°27' W 003°01'1 0.6
2016-Apr-23 07:34N 53°27' W 003°02'8 7.8
2016-Apr-23 06:33N 53°31' W 003°13'7 7.0
2016-Apr-23 05:33N 53°31' W 003°25'7 7.2
2016-Apr-23 04:33N 53°31' W 003°37'1212.0
2016-Apr-23 03:33N 53°32' W 003°57'1212.1
2016-Apr-23 02:33N 53°34' W 004°17'67 1.7
2016-Apr-21 11:17N 53°21' W 006°08'6 7.0
2016-Apr-21 10:25N 53°22' W 005°58'1011.3
2016-Apr-21 09:33N 53°20' W 005°42'3617.0
2016-Apr-21 07:25N 52°44' W 005°34'1719.5
2016-Apr-21 06:34N 52°28' W 005°36'1919.3
2016-Apr-21 05:33N 52°09' W 005°40'2020.0
2016-Apr-21 04:34N 51°49' W 005°49'4119.7
2016-Apr-21 02:28N 51°08' W 005°54'1819.8
2016-Apr-21 01:34N 50°50' W 005°53'2020.0
2016-Apr-21 00:33N 50°30' W 005°53'2020.2
2016-Apr-20 23:33N 50°10' W 005°55'2115.3
2016-Apr-20 22:13N 49°54' W 005°35'1521.5
2016-Apr-20 21:33N 49°55' W 005°12'2121.0
2016-Apr-20 20:33N 49°53' W 004°40'2020.2
2016-Apr-20 19:33N 49°54' W 004°09'1919.3
2016-Apr-20 18:34N 49°55' W 003°39'1818.5
2016-Apr-20 17:34N 50°00' W 003°12'1918.8
2016-Apr-20 16:33N 50°06' W 002°44'2119.9
2016-Apr-20 15:30N 50°11' W 002°12'2521.8
2016-Apr-20 14:21N 50°15' W 001°33'1721.5
2016-Apr-20 13:33N 50°27' W 001°15'1817.7
2016-Apr-20 12:34N 50°41' W 000°58'1111.2
2016-Apr-20 11:34N 50°46' W 001°15'8 8.3
2016-Apr-20 10:33N 50°52' W 001°23'3 3.3
2016-Apr-20 09:32N 50°54' W 001°27'0 0.0
2016-Apr-20 08:32N 50°54' W 001°27'0 0.0
2016-Apr-20 07:33N 50°54' W 001°27'0 0.0
2016-Apr-20 06:32N 50°54' W 001°27'0 0.0
2016-Apr-20 05:33N 50°54' W 001°27'0 0.0
2016-Apr-20 04:32N 50°54' W 001°27'0 0.0
2016-Apr-20 03:32N 50°54' W 001°27'0 0.0
2016-Apr-20 02:32N 50°54' W 001°27'0 0.0
2016-Apr-20 01:32N 50°54' W 001°27'  
Track history (hours):
 
Tides and Currents Weather Stations Pressure Air Temp Water Temp Dewpoint Dewpoint Depression Visibility Wind Speed Wind Dir Waves Ship Positions

Windhoek

Last reported at 2016-Apr-30 00:33 UTC. Time now 2016-Apr-30 01:25 UTC.
Position N 51°03' E 001°39'.

Length 172 m; draft 6.4 m.

Type: Ship (hazmat cat C). MMSI: 370431000.

Date/timePositionNaut miles runAvg speedWind from/ knotsBaromVisibWave heightAir tempDewpointWater temp
2016-Apr-30 00:33N 51°03' E 001°39'8 8.4
2016-Apr-29 23:33N 50°57' E 001°29'9 8.5
2016-Apr-29 22:33N 50°49' E 001°25'45 8.9
2016-Apr-29 17:33N 50°24' E 000°27'1515.5
2016-Apr-29 16:33N 50°20' E 000°04'1616.1
2016-Apr-29 15:33N 50°15' W 000°20'1616.0
2016-Apr-29 14:31N 50°09' W 000°45'1515.3
2016-Apr-29 13:33N 49°54' W 000°44'1413.6
2016-Apr-29 12:33N 49°45' W 000°29'1514.6
2016-Apr-29 11:33N 49°35' W 000°12'1313.4
2016-Apr-29 10:33N 49°28' E 000°06'3 3.2
2016-Apr-29 09:32N 49°27' E 000°10'0 0.0
2016-Apr-29 08:32N 49°27' E 000°10'0 0.0
2016-Apr-29 07:32N 49°27' E 000°10'0 0.0
2016-Apr-29 06:32N 49°27' E 000°10'0 0.0
2016-Apr-29 05:32N 49°27' E 000°10'0 0.0
2016-Apr-29 04:32N 49°27' E 000°10'0 0.0
2016-Apr-29 03:32N 49°27' E 000°10'0 0.0
2016-Apr-29 02:32N 49°27' E 000°10'0 0.0
2016-Apr-29 01:32N 49°27' E 000°10'0 0.0
2016-Apr-29 00:32N 49°27' E 000°10'0 0.0
2016-Apr-28 23:32N 49°27' E 000°10'0 0.0
2016-Apr-28 22:32N 49°27' E 000°10'0 0.0
2016-Apr-28 21:32N 49°27' E 000°10'0 0.0
2016-Apr-28 20:32N 49°27' E 000°10'0 0.0
2016-Apr-28 19:32N 49°27' E 000°10'0 0.0
2016-Apr-28 18:32N 49°27' E 000°10'0 0.0
2016-Apr-28 17:32N 49°27' E 000°10'0 0.0
2016-Apr-28 16:32N 49°27' E 000°10'0 0.0
2016-Apr-28 15:32N 49°27' E 000°10'0 0.0
2016-Apr-28 14:32N 49°27' E 000°10'0 0.0
2016-Apr-28 13:32N 49°27' E 000°10'0 0.0
2016-Apr-28 12:32N 49°27' E 000°10'0 0.0
2016-Apr-28 11:32N 49°27' E 000°10'0 0.0
2016-Apr-28 10:32N 49°27' E 000°10'0 0.0
2016-Apr-28 09:32N 49°27' E 000°10'0 0.0
2016-Apr-28 08:32N 49°27' E 000°10'0 0.0
2016-Apr-28 07:32N 49°27' E 000°10'0 0.0
2016-Apr-28 06:32N 49°27' E 000°10'0 0.0
2016-Apr-28 05:32N 49°27' E 000°10'2 2.2
2016-Apr-28 04:33N 49°28' E 000°07'2 2.1
2016-Apr-28 03:33N 49°29' E 000°10'0 0.0
2016-Apr-28 02:33N 49°29' E 000°10'0 0.0
2016-Apr-28 01:33N 49°29' E 000°10'0 0.0
2016-Apr-28 00:33N 49°29' E 000°10'0 0.0
2016-Apr-27 23:33N 49°29' E 000°10'0 0.0
2016-Apr-27 22:33N 49°29' E 000°10'0 0.0
2016-Apr-27 21:33N 49°29' E 000°10'0 0.0
2016-Apr-27 20:33N 49°29' E 000°10'0 0.0
2016-Apr-27 19:33N 49°29' E 000°10'0 0.0
2016-Apr-27 18:33N 49°29' E 000°10'0 0.0
2016-Apr-27 17:33N 49°29' E 000°10'0 0.1
2016-Apr-27 16:34N 49°29' E 000°10'8 8.1
2016-Apr-27 15:34N 49°31' W 000°02'1413.9
2016-Apr-27 14:34N 49°35' W 000°23'1413.9
2016-Apr-27 13:33N 49°40' W 000°42'1413.9
2016-Apr-27 12:33N 49°45' W 001°03'6917.3
2016-Apr-27 08:34N 49°48' W 002°49'1615.7
2016-Apr-27 07:33N 49°46' W 003°13'2016.7
2016-Apr-27 06:23N 49°46' W 003°44'1617.4
2016-Apr-27 05:27N 49°47' W 004°09'1917.1
2016-Apr-27 04:22N 49°47' W 004°37'5713.7
2016-Apr-27 00:12N 50°07' W 005°60'1218.2
2016-Apr-26 23:34N 50°19' W 006°01'2017.9
2016-Apr-26 22:27N 50°39' W 006°02'8216.6
2016-Apr-26 17:32N 52°00' W 005°55'1818.2
2016-Apr-26 16:34N 52°17' W 005°44'1918.7
2016-Apr-26 15:33N 52°35' W 005°37'8617.1
2016-Apr-26 10:31N 53°60' W 005°07'1516.2
2016-Apr-26 09:34N 54°15' W 005°02'1615.9
2016-Apr-26 08:34N 54°30' W 005°07'1616.4
2016-Apr-26 07:34N 54°45' W 005°18'1514.8
2016-Apr-26 06:34N 55°00' W 005°22'3516.1
2016-Apr-26 04:24N 55°32' W 004°58'2010.9
2016-Apr-26 02:33N 55°52' W 004°56'8 7.6
2016-Apr-26 01:31N 55°57' W 004°46'0 0.0
2016-Apr-26 00:31N 55°57' W 004°46'0 0.0
2016-Apr-25 23:31N 55°57' W 004°46'0 0.0
2016-Apr-25 22:31N 55°57' W 004°46'0 0.0
2016-Apr-25 21:31N 55°57' W 004°46'1 0.7
2016-Apr-25 20:33N 55°58' W 004°47'1110.3
2016-Apr-25 19:32N 55°49' W 004°57'1111.7
2016-Apr-25 18:34N 55°38' W 004°58'3014.9
2016-Apr-25 16:33N 55°10' W 005°16'1515.3
2016-Apr-25 15:33N 54°55' W 005°26'1515.2
2016-Apr-25 14:33N 54°43' W 005°41'9 8.8
2016-Apr-25 13:32N 54°38' W 005°53'0 0.5
2016-Apr-25 12:33N 54°38' W 005°53'0 0.0
2016-Apr-25 11:28N 54°38' W 005°53'0 0.0
2016-Apr-25 10:34N 54°38' W 005°53'0 0.0
2016-Apr-25 09:33N 54°38' W 005°53'0 0.0
2016-Apr-25 08:33N 54°38' W 005°53'0 0.0
2016-Apr-25 07:34N 54°38' W 005°53'0 0.0
2016-Apr-25 06:33N 54°38' W 005°53'0 0.0
2016-Apr-25 05:33N 54°38' W 005°53'0 0.0
2016-Apr-25 04:34N 54°38' W 005°53'0 0.0
2016-Apr-25 03:34N 54°38' W 005°53'0 0.0
2016-Apr-25 02:34N 54°38' W 005°53'0 0.0
2016-Apr-25 01:33N 54°38' W 005°53'0 0.0
2016-Apr-25 00:33N 54°38' W 005°53'0 0.0
2016-Apr-24 23:33N 54°38' W 005°53'0 0.0
2016-Apr-24 22:27N 54°38' W 005°53'0 0.0
2016-Apr-24 21:34N 54°38' W 005°53'2 1.7
2016-Apr-24 20:33N 54°39' W 005°51'1010.0
2016-Apr-24 19:33N 54°44' W 005°36'1616.3
2016-Apr-24 18:33N 54°33' W 005°14'1818.4
2016-Apr-24 17:34N 54°17' W 005°00'5317.7
2016-Apr-24 14:33N 53°39' W 003°57'1918.6
2016-Apr-24 13:33N 53°33' W 003°27'1110.8
2016-Apr-24 12:33N 53°32' W 003°09'7 6.7
2016-Apr-24 11:33N 53°27' W 003°01'1 0.5
2016-Apr-24 10:33N 53°28' W 003°01'0 0.1
2016-Apr-24 09:32N 53°28' W 003°01'0 0.0
2016-Apr-24 08:32N 53°28' W 003°01'0 0.0
2016-Apr-24 07:31N 53°28' W 003°01'0 0.0
2016-Apr-24 06:31N 53°28' W 003°01'0 0.0
2016-Apr-24 05:31N 53°28' W 003°01'0 0.0
2016-Apr-24 04:31N 53°28' W 003°01'0 0.0
2016-Apr-24 03:31N 53°28' W 003°01'0 0.0
2016-Apr-24 02:31N 53°28' W 003°01'0 0.0
2016-Apr-24 01:31N 53°28' W 003°01'0 0.0
2016-Apr-24 00:31N 53°28' W 003°01'0 0.0
2016-Apr-23 23:31N 53°28' W 003°01'0 0.0
2016-Apr-23 22:31N 53°28' W 003°01'0 0.0
2016-Apr-23 21:29N 53°28' W 003°01'0 0.0
2016-Apr-23 20:19N 53°28' W 003°01'0 0.0
2016-Apr-23 19:31N 53°28' W 003°01'0 0.0
2016-Apr-23 18:32N 53°28' W 003°01'0 0.0
2016-Apr-23 17:29N 53°28' W 003°01'0 0.0
2016-Apr-23 16:31N 53°28' W 003°01'0 0.0
2016-Apr-23 15:29N 53°28' W 003°01'0 0.0
2016-Apr-23 14:31N 53°28' W 003°01'0 0.0
2016-Apr-23 13:28N 53°28' W 003°01'0 0.0
2016-Apr-23 12:31N 53°28' W 003°01'0 0.0
2016-Apr-23 11:31N 53°28' W 003°01'0 0.0
2016-Apr-23 10:31N 53°28' W 003°01'0 0.3
2016-Apr-23 09:28N 53°27' W 003°01'0 0.3
2016-Apr-23 08:28N 53°27' W 003°01'1 0.6
2016-Apr-23 07:34N 53°27' W 003°02'8 7.8
2016-Apr-23 06:33N 53°31' W 003°13'7 7.0
2016-Apr-23 05:33N 53°31' W 003°25'7 7.2
2016-Apr-23 04:33N 53°31' W 003°37'1212.0
2016-Apr-23 03:33N 53°32' W 003°57'1212.1
2016-Apr-23 02:33N 53°34' W 004°17'67 1.7
2016-Apr-21 11:17N 53°21' W 006°08'6 7.0
2016-Apr-21 10:25N 53°22' W 005°58'1011.3
2016-Apr-21 09:33N 53°20' W 005°42'3617.0
2016-Apr-21 07:25N 52°44' W 005°34'1719.5
2016-Apr-21 06:34N 52°28' W 005°36'1919.3
2016-Apr-21 05:33N 52°09' W 005°40'2020.0
2016-Apr-21 04:34N 51°49' W 005°49'4119.7
2016-Apr-21 02:28N 51°08' W 005°54'1819.8
2016-Apr-21 01:34N 50°50' W 005°53'2020.0
2016-Apr-21 00:33N 50°30' W 005°53'2020.2
2016-Apr-20 23:33N 50°10' W 005°55'2115.3
2016-Apr-20 22:13N 49°54' W 005°35'1521.5
2016-Apr-20 21:33N 49°55' W 005°12'2121.0
2016-Apr-20 20:33N 49°53' W 004°40'2020.2
2016-Apr-20 19:33N 49°54' W 004°09'1919.3
2016-Apr-20 18:34N 49°55' W 003°39'1818.5
2016-Apr-20 17:34N 50°00' W 003°12'1918.8
2016-Apr-20 16:33N 50°06' W 002°44'2119.9
2016-Apr-20 15:30N 50°11' W 002°12'2521.8
2016-Apr-20 14:21N 50°15' W 001°33'1721.5
2016-Apr-20 13:33N 50°27' W 001°15'1817.7
2016-Apr-20 12:34N 50°41' W 000°58'1111.2
2016-Apr-20 11:34N 50°46' W 001°15'8 8.3
2016-Apr-20 10:33N 50°52' W 001°23'3 3.3
2016-Apr-20 09:32N 50°54' W 001°27'0 0.0
2016-Apr-20 08:32N 50°54' W 001°27'0 0.0
2016-Apr-20 07:33N 50°54' W 001°27'0 0.0
2016-Apr-20 06:32N 50°54' W 001°27'0 0.0
2016-Apr-20 05:33N 50°54' W 001°27'0 0.0
2016-Apr-20 04:32N 50°54' W 001°27'0 0.0
2016-Apr-20 03:32N 50°54' W 001°27'0 0.0
2016-Apr-20 02:32N 50°54' W 001°27'0 0.0
2016-Apr-20 01:32N 50°54' W 001°27'  

Dump ship's entire track history